createdAt,value
2023-04-20T00:00:01.450Z,1.04
2023-04-20T00:01:01.025Z,1.04
2023-04-20T00:02:01.254Z,1.04
2023-04-20T00:03:01.435Z,1.04
2023-04-20T00:04:01.619Z,1.04
2023-04-20T00:05:01.648Z,1.04
2023-04-20T00:06:01.787Z,1.04
2023-04-20T00:07:01.942Z,1.04
2023-04-20T00:08:02.038Z,1.04
2023-04-20T00:09:02.179Z,1.04
2023-04-20T00:10:02.285Z,1.04
2023-04-20T00:11:02.428Z,1.04
2023-04-20T00:12:02.549Z,1.04
2023-04-20T00:13:02.702Z,1.04
2023-04-20T00:14:02.853Z,1.04
2023-04-20T00:15:03.534Z,1.04
2023-04-20T00:16:03.166Z,1.04
2023-04-20T00:17:03.308Z,1.04
2023-04-20T00:18:03.489Z,1.04
2023-04-20T00:19:03.616Z,1.04
2023-04-20T00:20:03.745Z,1.04
2023-04-20T00:21:03.860Z,1.04
2023-04-20T00:22:04.003Z,1.04
2023-04-20T00:23:04.176Z,1.04
2023-04-20T00:24:04.301Z,1.04
2023-04-20T00:25:04.455Z,1.04
2023-04-20T00:26:04.553Z,1.04
2023-04-20T00:27:04.704Z,1.04
2023-04-20T00:28:04.813Z,1.04
2023-04-20T00:29:04.945Z,1.04
2023-04-20T00:30:05.097Z,1.04
2023-04-20T00:31:05.280Z,1.04
2023-04-20T00:32:05.394Z,1.04
2023-04-20T00:33:05.584Z,1.04
2023-04-20T00:34:05.713Z,1.04
2023-04-20T00:35:05.874Z,1.04
2023-04-20T00:36:06.013Z,1.04
2023-04-20T00:37:06.175Z,1.04
2023-04-20T00:38:06.288Z,1.04
2023-04-20T00:39:06.422Z,1.04
2023-04-20T00:40:06.522Z,1.04
2023-04-20T00:41:06.678Z,1.04
2023-04-20T00:42:06.853Z,1.04
2023-04-20T00:43:07.002Z,1.04
2023-04-20T00:44:07.149Z,1.04
2023-04-20T00:45:07.771Z,1.04
2023-04-20T00:47:07.511Z,1.04
2023-04-20T00:48:07.615Z,1.04
2023-04-20T00:49:07.762Z,1.04
2023-04-20T00:50:07.909Z,1.04
2023-04-20T00:51:08.088Z,1.04
2023-04-20T00:52:08.211Z,1.04
2023-04-20T00:53:08.364Z,1.04
2023-04-20T00:54:08.479Z,1.04
2023-04-20T00:55:08.580Z,1.04
2023-04-20T00:56:08.784Z,1.04
2023-04-20T00:57:08.872Z,1.04
2023-04-20T00:58:09.052Z,1.04
2023-04-20T00:59:09.182Z,1.04
2023-04-20T01:00:09.325Z,1.04
2023-04-20T01:01:09.437Z,1.04
2023-04-20T01:02:09.736Z,1.04
2023-04-20T01:03:09.804Z,1.04
2023-04-20T01:04:09.844Z,1.04
2023-04-20T01:05:09.957Z,1.04
2023-04-20T01:06:10.142Z,1.04
2023-04-20T01:07:10.232Z,1.04
2023-04-20T01:08:10.366Z,1.04
2023-04-20T01:09:10.513Z,1.04
2023-04-20T01:10:10.636Z,1.04
2023-04-20T01:11:11.324Z,1.04
2023-04-20T01:12:10.977Z,1.04
2023-04-20T01:13:11.092Z,1.04
2023-04-20T01:14:11.251Z,1.04
2023-04-20T01:15:11.926Z,1.04
2023-04-20T01:16:11.544Z,1.04
2023-04-20T01:17:11.716Z,1.04
2023-04-20T01:18:11.862Z,1.04
2023-04-20T01:19:12.015Z,1.04
2023-04-20T01:20:12.131Z,1.04
2023-04-20T01:21:12.281Z,1.04
2023-04-20T01:22:12.458Z,1.04
2023-04-20T01:23:12.585Z,1.04
2023-04-20T01:24:12.685Z,1.04
2023-04-20T01:25:12.836Z,1.04
2023-04-20T01:26:12.948Z,1.04
2023-04-20T01:27:13.082Z,1.04
2023-04-20T01:28:13.193Z,1.04
2023-04-20T01:29:13.362Z,1.04
2023-04-20T01:30:13.511Z,1.04
2023-04-20T01:31:13.746Z,1.04
2023-04-20T01:32:13.769Z,1.04
2023-04-20T01:33:13.915Z,1.04
2023-04-20T01:34:14.058Z,1.04
2023-04-20T01:35:14.212Z,1.04
2023-04-20T01:36:14.349Z,1.04
2023-04-20T01:37:14.515Z,1.04
2023-04-20T01:38:14.671Z,1.04
2023-04-20T01:39:14.947Z,1.04
2023-04-20T01:40:14.986Z,1.04
2023-04-20T01:41:15.117Z,1.04
2023-04-20T01:42:15.231Z,1.04
2023-04-20T01:43:15.376Z,1.04
2023-04-20T01:44:15.523Z,1.04
2023-04-20T01:45:16.175Z,1.04
2023-04-20T01:46:15.843Z,1.04
2023-04-20T01:47:15.982Z,1.04
2023-04-20T01:48:16.137Z,1.04
2023-04-20T01:49:16.486Z,1.04
2023-04-20T01:50:16.452Z,1.04
2023-04-20T01:51:16.580Z,1.04
2023-04-20T01:52:16.738Z,1.04
2023-04-20T01:53:16.901Z,1.04
2023-04-20T01:54:17.055Z,1.04
2023-04-20T01:55:18.885Z,1.04
2023-04-20T01:56:17.352Z,1.04
2023-04-20T01:57:17.496Z,1.04
2023-04-20T01:58:17.591Z,1.04
2023-04-20T01:59:17.876Z,1.04
2023-04-20T02:00:18.339Z,1.04
2023-04-20T02:02:18.197Z,1.04
2023-04-20T02:03:18.344Z,1.04
2023-04-20T02:04:18.441Z,1.04
2023-04-20T02:05:18.554Z,1.04
2023-04-20T02:06:18.699Z,1.04
2023-04-20T02:07:18.870Z,1.04
2023-04-20T02:08:19.013Z,1.04
2023-04-20T02:09:19.397Z,1.04
2023-04-20T02:10:19.312Z,1.04
2023-04-20T02:11:19.470Z,1.04
2023-04-20T02:12:19.615Z,1.04
2023-04-20T02:13:19.766Z,1.04
2023-04-20T02:14:19.927Z,1.04
2023-04-20T02:15:20.499Z,1.04
2023-04-20T02:16:20.239Z,1.04
2023-04-20T02:17:20.471Z,1.04
2023-04-20T02:18:20.523Z,1.04
2023-04-20T02:19:20.673Z,1.04
2023-04-20T02:20:20.793Z,1.04
2023-04-20T02:21:20.923Z,1.04
2023-04-20T02:22:21.095Z,1.04
2023-04-20T02:23:21.243Z,1.04
2023-04-20T02:24:21.379Z,1.04
2023-04-20T02:25:21.541Z,1.04
2023-04-20T02:26:21.705Z,1.04
2023-04-20T02:27:21.841Z,1.04
2023-04-20T02:28:21.992Z,1.04
2023-04-20T02:29:22.148Z,1.04
2023-04-20T02:30:22.837Z,1.04
2023-04-20T02:31:22.511Z,1.04
2023-04-20T02:32:22.577Z,1.04
2023-04-20T02:33:22.691Z,1.04
2023-04-20T02:34:22.862Z,1.04
2023-04-20T02:35:23.030Z,1.04
2023-04-20T02:36:23.102Z,1.04
2023-04-20T02:37:23.257Z,1.04
2023-04-20T02:38:23.395Z,1.04
2023-04-20T02:39:23.588Z,1.04
2023-04-20T02:40:23.713Z,1.04
2023-04-20T02:41:23.853Z,1.04
2023-04-20T02:42:24.029Z,1.04
2023-04-20T02:43:24.171Z,1.04
2023-04-20T02:44:24.805Z,1.04
2023-04-20T02:45:24.354Z,1.04
2023-04-20T02:46:24.524Z,1.04
2023-04-20T02:47:24.710Z,1.04
2023-04-20T02:48:24.827Z,1.04
2023-04-20T02:49:24.970Z,1.04
2023-04-20T02:50:25.118Z,1.04
2023-04-20T02:51:25.262Z,1.04
2023-04-20T02:52:25.429Z,1.04
2023-04-20T02:53:25.528Z,1.04
2023-04-20T02:54:25.632Z,1.04
2023-04-20T02:55:25.783Z,1.04
2023-04-20T02:56:25.901Z,1.04
2023-04-20T02:57:26.057Z,1.04
2023-04-20T02:58:26.204Z,1.04
2023-04-20T02:59:26.807Z,1.04
2023-04-20T03:00:26.449Z,1.04
2023-04-20T03:01:26.634Z,1.04
2023-04-20T03:02:26.968Z,1.04
2023-04-20T03:03:27.090Z,1.04
2023-04-20T03:04:27.124Z,1.04
2023-04-20T03:05:27.156Z,1.04
2023-04-20T03:06:27.302Z,1.04
2023-04-20T03:07:27.452Z,1.04
2023-04-20T03:08:27.597Z,1.04
2023-04-20T03:09:27.782Z,1.04
2023-04-20T03:10:27.894Z,1.04
2023-04-20T03:11:28.000Z,1.04
2023-04-20T03:12:28.112Z,1.04
2023-04-20T03:13:28.254Z,1.04
2023-04-20T03:14:28.410Z,1.04
2023-04-20T03:15:28.562Z,1.04
2023-04-20T03:16:28.711Z,1.04
2023-04-20T03:17:28.819Z,1.04
2023-04-20T03:18:28.976Z,1.04
2023-04-20T03:19:29.121Z,1.04
2023-04-20T03:20:29.256Z,1.04
2023-04-20T03:21:29.421Z,1.04
2023-04-20T03:22:29.548Z,1.04
2023-04-20T03:23:29.669Z,1.04
2023-04-20T03:24:29.832Z,1.04
2023-04-20T03:25:29.987Z,2
2023-04-20T03:26:30.136Z,2
2023-04-20T03:27:30.285Z,2
2023-04-20T03:28:30.379Z,2
2023-04-20T03:29:31.086Z,3.04
2023-04-20T03:30:30.658Z,3.04
2023-04-20T03:31:30.851Z,3.04
2023-04-20T03:32:32.714Z,4
2023-04-20T03:33:31.029Z,4
2023-04-20T03:34:31.191Z,5.04
2023-04-20T03:35:31.342Z,6
2023-04-20T03:36:31.469Z,7.04
2023-04-20T03:37:31.584Z,8
2023-04-20T03:38:31.694Z,9.04
2023-04-20T03:39:31.817Z,10
2023-04-20T03:40:31.907Z,12
2023-04-20T03:41:32.058Z,14
2023-04-20T03:42:32.205Z,16
2023-04-20T03:43:32.327Z,19.04
2023-04-20T03:44:33.023Z,22
2023-04-20T03:46:32.728Z,31.04
2023-04-20T03:47:32.890Z,35.04
2023-04-20T03:48:33.036Z,42
2023-04-20T03:49:33.166Z,48
2023-04-20T03:50:33.339Z,101.04
2023-04-20T03:51:33.487Z,115.04
2023-04-20T03:52:33.617Z,134
2023-04-20T03:53:33.771Z,152
2023-04-20T03:54:33.920Z,178.08
2023-04-20T03:55:34.072Z,200
2023-04-20T03:56:34.238Z,231.04
2023-04-20T03:57:34.383Z,256
2023-04-20T03:58:34.522Z,285.12
2023-04-20T03:59:35.221Z,322.08
2023-04-20T04:00:34.837Z,354.24
2023-04-20T04:01:34.986Z,401.28
2023-04-20T04:02:37.625Z,441.28
2023-04-20T04:03:35.331Z,477.12
2023-04-20T04:04:35.584Z,530.24
2023-04-20T04:05:35.574Z,570.24
2023-04-20T04:06:35.694Z,624
2023-04-20T04:07:35.838Z,673.28
2023-04-20T04:08:35.954Z,724.48
2023-04-20T04:09:36.104Z,770.56
2023-04-20T04:10:36.254Z,832
2023-04-20T04:11:36.406Z,885.12
2023-04-20T04:12:36.561Z,940.16
2023-04-20T04:13:36.710Z,998.4
2023-04-20T04:14:37.289Z,1073.28
2023-04-20T04:15:36.995Z,1137.28
2023-04-20T04:16:37.169Z,1207.04
2023-04-20T04:17:37.291Z,1284.48
2023-04-20T04:18:37.415Z,1419.52
2023-04-20T04:19:37.571Z,1502.72
2023-04-20T04:20:37.666Z,1584.64
2023-04-20T04:21:37.828Z,1697.28
2023-04-20T04:22:37.977Z,1815.04
2023-04-20T04:23:38.080Z,1967.36
2023-04-20T04:24:38.230Z,2172.16
2023-04-20T04:25:38.375Z,2371.84
2023-04-20T04:26:38.540Z,2510.08
2023-04-20T04:27:38.661Z,2677.76
2023-04-20T04:28:38.789Z,2803.2
2023-04-20T04:29:39.404Z,2928.64
2023-04-20T04:30:39.037Z,3043.84
2023-04-20T04:31:39.213Z,3156.48
2023-04-20T04:32:39.376Z,3310.08
2023-04-20T04:33:39.463Z,3550.72
2023-04-20T04:34:39.582Z,4085.76
2023-04-20T04:35:39.756Z,4579.84
2023-04-20T04:36:39.899Z,5370.88
2023-04-20T04:37:40.045Z,6420.48
2023-04-20T04:38:40.185Z,7116.8
2023-04-20T04:39:40.307Z,7802.88
2023-04-20T04:40:40.462Z,8320
2023-04-20T04:41:40.615Z,8990.72
2023-04-20T04:42:40.767Z,9697.279
2023-04-20T04:43:40.900Z,10234.88
2023-04-20T04:44:41.629Z,11100.16
2023-04-20T04:45:41.238Z,11335.68
2023-04-20T04:46:41.434Z,11735.04
2023-04-20T04:47:41.554Z,12472.319
2023-04-20T04:48:41.669Z,12554.239
2023-04-20T04:49:41.819Z,12789.76
2023-04-20T04:50:41.961Z,14387.199
2023-04-20T04:51:42.118Z,14571.52
2023-04-20T04:52:42.238Z,15994.88
2023-04-20T04:53:42.316Z,17346.56
2023-04-20T04:54:42.415Z,18073.6
2023-04-20T04:55:42.583Z,18544.64
2023-04-20T04:56:42.736Z,19404.8
2023-04-20T04:57:42.889Z,20008.96
2023-04-20T04:58:43.028Z,20736
2023-04-20T04:59:43.689Z,21606.4
2023-04-20T05:00:43.322Z,22241.28
2023-04-20T05:01:43.495Z,22609.92
2023-04-20T05:02:43.647Z,22937.6
2023-04-20T05:03:43.852Z,23306.24
2023-04-20T05:04:44.012Z,24002.56
2023-04-20T05:05:44.037Z,24719.36
2023-04-20T05:06:44.193Z,25251.84
2023-04-20T05:07:44.326Z,26112
2023-04-20T05:08:45.009Z,26828.8
2023-04-20T05:09:44.634Z,27811.84
2023-04-20T05:10:44.793Z,28815.36
2023-04-20T05:11:44.927Z,29880.32
2023-04-20T05:12:45.047Z,30924.8
2023-04-20T05:13:45.136Z,32030.72
2023-04-20T05:14:46.285Z,32501.76
2023-04-20T05:15:45.389Z,33095.68
2023-04-20T05:16:45.596Z,34304
2023-04-20T05:17:45.700Z,35635.2
2023-04-20T05:18:45.854Z,36065.28
2023-04-20T05:19:45.995Z,35778.56
2023-04-20T05:20:46.112Z,37109.76
2023-04-20T05:21:46.271Z,38563.84
2023-04-20T05:22:46.407Z,39813.12
2023-04-20T05:23:46.524Z,40284.16
2023-04-20T05:24:46.650Z,40816.64
2023-04-20T05:25:46.805Z,37806.08
2023-04-20T05:26:46.899Z,35368.96
2023-04-20T05:27:47.146Z,35409.92
2023-04-20T05:28:47.157Z,36966.4
2023-04-20T05:29:47.273Z,37703.68
2023-04-20T05:30:47.408Z,39342.08
2023-04-20T05:31:47.541Z,40345.6
2023-04-20T05:32:50.118Z,41390.08
2023-04-20T05:33:47.818Z,41984
2023-04-20T05:34:47.918Z,42885.12
2023-04-20T05:35:48.063Z,43499.52
2023-04-20T05:36:48.173Z,43991.04
2023-04-20T05:37:48.277Z,44933.12
2023-04-20T05:38:48.414Z,45834.24
2023-04-20T05:39:48.521Z,46899.2
2023-04-20T05:40:49.815Z,47267.84
2023-04-20T05:41:48.726Z,47554.56
2023-04-20T05:42:48.829Z,48168.96
2023-04-20T05:43:48.920Z,48537.6
2023-04-20T05:44:49.082Z,48906.24
2023-04-20T05:45:49.282Z,49315.84
2023-04-20T05:46:49.378Z,49315.84
2023-04-20T05:47:49.497Z,49274.88
2023-04-20T05:48:49.626Z,49152
2023-04-20T05:49:49.695Z,42311.68
2023-04-20T05:50:49.859Z,29798.4
2023-04-20T05:51:49.997Z,49725.44
2023-04-20T05:52:50.149Z,49684.48
2023-04-20T05:53:50.280Z,51077.12
2023-04-20T05:54:50.414Z,52305.92
2023-04-20T05:55:50.505Z,50380.8
2023-04-20T05:56:50.604Z,53657.6
2023-04-20T05:57:50.764Z,54681.6
2023-04-20T05:58:50.903Z,55582.72
2023-04-20T05:59:51.059Z,55910.4
2023-04-20T06:00:51.201Z,55705.6
2023-04-20T06:01:51.859Z,56934.4
2023-04-20T06:02:51.588Z,57057.28
2023-04-20T06:03:51.721Z,57344
2023-04-20T06:04:51.858Z,57999.36
2023-04-20T06:05:51.933Z,55418.88
2023-04-20T06:06:52.107Z,50298.88
2023-04-20T06:07:52.167Z,55255.04
2023-04-20T06:08:52.324Z,59310.08
2023-04-20T06:09:52.434Z,50216.96
2023-04-20T06:10:52.573Z,56320
2023-04-20T06:11:52.714Z,59392
2023-04-20T06:12:52.849Z,43376.64
2023-04-20T06:13:53.008Z,41615.36
2023-04-20T06:14:53.642Z,31580.16
2023-04-20T06:15:53.330Z,62955.52
2023-04-20T06:16:53.456Z,41656.32
2023-04-20T06:17:53.688Z,43786.24
2023-04-20T06:18:53.685Z,22179.84
2023-04-20T06:19:53.792Z,46817.28
2023-04-20T06:20:53.937Z,65536
2023-04-20T06:21:54.118Z,57958.4
2023-04-20T06:22:54.262Z,62504.96
2023-04-20T06:23:54.401Z,65699.84
2023-04-20T06:24:54.537Z,66150.4
2023-04-20T06:25:54.734Z,67952.64
2023-04-20T06:26:54.895Z,67952.64
2023-04-20T06:27:55.010Z,68280.32
2023-04-20T06:28:55.177Z,68976.64
2023-04-20T06:29:55.695Z,69468.16
2023-04-20T06:30:55.521Z,70000.64
2023-04-20T06:31:56.075Z,70656
2023-04-20T06:32:55.817Z,71188.48
2023-04-20T06:33:55.933Z,72130.56
2023-04-20T06:34:56.080Z,72007.68
2023-04-20T06:35:56.203Z,69345.28
2023-04-20T06:36:56.375Z,60456.96
2023-04-20T06:37:56.530Z,66355.2
2023-04-20T06:38:56.625Z,64798.72
2023-04-20T06:39:56.772Z,38174.72
2023-04-20T06:40:56.930Z,27668.48
2023-04-20T06:41:57.069Z,29511.68
2023-04-20T06:42:57.189Z,33832.96
2023-04-20T06:43:57.346Z,42434.56
2023-04-20T06:44:57.936Z,36270.08
2023-04-20T06:45:57.582Z,17121.28
2023-04-20T06:46:57.778Z,16998.4
2023-04-20T06:47:57.857Z,19578.88
2023-04-20T06:48:57.944Z,21463.04
2023-04-20T06:49:58.115Z,45916.16
2023-04-20T06:50:58.260Z,42885.12
2023-04-20T06:51:58.342Z,42024.96
2023-04-20T06:52:58.479Z,37928.96
2023-04-20T06:53:58.585Z,40345.6
2023-04-20T06:54:58.755Z,25272.32
2023-04-20T06:55:58.900Z,31006.72
2023-04-20T06:56:59.012Z,35061.76
2023-04-20T06:57:59.144Z,34754.56
2023-04-20T06:58:59.485Z,26173.44
2023-04-20T06:59:59.933Z,23449.6
2023-04-20T07:00:59.600Z,21442.56
2023-04-20T07:01:59.922Z,21073.92
2023-04-20T07:02:59.974Z,24698.88
2023-04-20T07:04:00.268Z,28200.96
2023-04-20T07:05:00.469Z,29593.6
2023-04-20T07:06:00.355Z,31662.08
2023-04-20T07:07:00.558Z,27955.2
2023-04-20T07:08:00.641Z,26808.32
2023-04-20T07:09:00.776Z,32747.52
2023-04-20T07:10:00.928Z,33218.56
2023-04-20T07:11:01.074Z,33730.56
2023-04-20T07:12:01.211Z,35635.2
2023-04-20T07:13:01.364Z,42598.4
2023-04-20T07:14:01.467Z,39608.32
2023-04-20T07:15:02.068Z,36270.08
2023-04-20T07:16:01.859Z,33996.8
2023-04-20T07:17:01.886Z,54353.92
2023-04-20T07:18:02.177Z,53411.84
2023-04-20T07:19:02.157Z,45219.84
2023-04-20T07:20:02.235Z,48128
2023-04-20T07:21:02.336Z,36843.52
2023-04-20T07:22:02.490Z,25804.8
2023-04-20T07:23:02.647Z,29921.28
2023-04-20T07:24:02.799Z,73850.88
2023-04-20T07:25:02.951Z,66314.24
2023-04-20T07:26:03.088Z,25518.08
2023-04-20T07:27:03.259Z,30679.04
2023-04-20T07:28:03.404Z,26255.36
2023-04-20T07:29:03.576Z,27688.96
2023-04-20T07:30:04.127Z,47759.36
2023-04-20T07:31:03.796Z,30105.6
2023-04-20T07:32:04.010Z,29941.76
2023-04-20T07:33:04.121Z,29306.88
2023-04-20T07:34:04.241Z,29102.08
2023-04-20T07:35:04.342Z,32399.36
2023-04-20T07:36:04.548Z,45465.6
2023-04-20T07:37:04.674Z,39710.72
2023-04-20T07:38:04.827Z,55091.2
2023-04-20T07:39:04.956Z,51118.08
2023-04-20T07:40:05.134Z,47923.2
2023-04-20T07:41:05.281Z,37621.76
2023-04-20T07:42:05.407Z,36577.28
2023-04-20T07:43:05.516Z,39137.28
2023-04-20T07:44:05.691Z,32972.8
2023-04-20T07:45:06.543Z,30474.24
2023-04-20T07:46:06.041Z,34017.28
2023-04-20T07:47:06.167Z,34590.72
2023-04-20T07:48:06.699Z,36597.76
2023-04-20T07:49:06.383Z,35573.76
2023-04-20T07:50:06.503Z,34734.08
2023-04-20T07:51:06.628Z,34037.76
2023-04-20T07:52:16.181Z,35819.52
2023-04-20T07:53:06.880Z,37744.64
2023-04-20T07:54:07.027Z,38830.08
2023-04-20T07:55:07.181Z,38502.4
2023-04-20T07:56:07.335Z,40898.56
2023-04-20T07:57:07.479Z,47636.48
2023-04-20T07:58:07.632Z,51732.48
2023-04-20T07:59:07.798Z,50380.8
2023-04-20T08:00:07.948Z,67092.48
2023-04-20T08:01:08.090Z,69222.4
2023-04-20T08:02:08.293Z,63201.28
2023-04-20T08:03:08.546Z,56115.2
2023-04-20T08:04:08.681Z,53288.96
2023-04-20T08:05:08.818Z,46202.88
2023-04-20T08:06:08.786Z,45711.36
2023-04-20T08:07:08.918Z,44687.36
2023-04-20T08:08:09.053Z,42352.64
2023-04-20T08:09:09.987Z,41082.88
2023-04-20T08:10:09.383Z,35696.64
2023-04-20T08:11:09.436Z,36290.56
2023-04-20T08:12:09.586Z,28323.84
2023-04-20T08:13:09.788Z,35368.96
2023-04-20T08:14:09.896Z,29921.28
2023-04-20T08:15:10.107Z,34836.48
2023-04-20T08:16:10.232Z,33525.76
2023-04-20T08:17:10.300Z,32645.12
2023-04-20T08:18:10.449Z,33689.6
2023-04-20T08:19:10.546Z,35778.56
2023-04-20T08:20:11.184Z,46653.44
2023-04-20T08:21:10.836Z,85196.8
2023-04-20T08:22:11.010Z,76718.08
2023-04-20T08:23:11.143Z,75079.68
2023-04-20T08:24:11.268Z,69877.76
2023-04-20T08:25:11.441Z,69836.8
2023-04-20T08:26:11.588Z,69386.24
2023-04-20T08:27:11.749Z,73768.96
2023-04-20T08:28:15.459Z,71229.44
2023-04-20T08:29:12.036Z,77905.92
2023-04-20T08:30:12.670Z,69304.32
2023-04-20T08:32:12.446Z,68567.04
2023-04-20T08:33:12.676Z,68730.88
2023-04-20T08:34:12.754Z,48455.68
2023-04-20T08:35:12.905Z,69918.72
2023-04-20T08:36:13.053Z,73441.28
2023-04-20T08:37:13.221Z,70492.16
2023-04-20T08:38:15.860Z,64880.64
2023-04-20T08:39:13.452Z,45342.72
2023-04-20T08:40:13.563Z,58736.64
2023-04-20T08:41:13.743Z,50053.12
2023-04-20T08:42:13.857Z,45383.68
2023-04-20T08:43:14.028Z,38645.76
2023-04-20T08:44:14.234Z,32317.44
2023-04-20T08:45:14.916Z,33157.12
2023-04-20T08:46:14.506Z,34529.28
2023-04-20T08:47:14.631Z,46653.44
2023-04-20T08:48:14.791Z,44400.64
2023-04-20T08:49:14.930Z,49807.36
2023-04-20T08:50:15.078Z,50708.48
2023-04-20T08:51:15.182Z,41021.44
2023-04-20T08:52:15.325Z,42393.6
2023-04-20T08:53:15.481Z,42024.96
2023-04-20T08:54:15.888Z,41185.28
2023-04-20T08:55:15.779Z,44605.44
2023-04-20T08:56:15.928Z,40570.88
2023-04-20T08:57:16.085Z,39055.36
2023-04-20T08:58:16.261Z,38461.44
2023-04-20T08:59:16.344Z,38727.68
2023-04-20T09:00:16.946Z,40079.36
2023-04-20T09:01:19.951Z,40120.32
2023-04-20T09:02:16.791Z,42065.92
2023-04-20T09:03:16.941Z,38072.32
2023-04-20T09:04:17.546Z,36700.16
2023-04-20T09:05:17.142Z,33832.96
2023-04-20T09:06:17.237Z,32481.28
2023-04-20T09:07:17.403Z,31129.6
2023-04-20T09:08:17.556Z,29941.76
2023-04-20T09:09:17.627Z,29184
2023-04-20T09:10:17.806Z,28467.2
2023-04-20T09:11:17.878Z,28344.32
2023-04-20T09:12:18.054Z,27832.32
2023-04-20T09:13:18.181Z,27258.88
2023-04-20T09:14:18.758Z,26296.32
2023-04-20T09:15:18.505Z,25968.64
2023-04-20T09:16:18.676Z,26132.48
2023-04-20T09:17:18.779Z,25784.32
2023-04-20T09:18:18.922Z,24821.76
2023-04-20T09:19:18.986Z,23613.44
2023-04-20T09:20:19.199Z,22323.2
2023-04-20T09:21:19.329Z,21647.36
2023-04-20T09:22:19.439Z,21094.4
2023-04-20T09:23:19.602Z,20817.92
2023-04-20T09:24:19.704Z,20746.24
2023-04-20T09:25:19.946Z,20336.64
2023-04-20T09:26:20.036Z,20316.16
2023-04-20T09:27:20.170Z,20428.8
2023-04-20T09:28:20.337Z,20817.92
2023-04-20T09:29:20.438Z,21524.48
2023-04-20T09:30:21.045Z,22548.48
2023-04-20T09:32:21.422Z,24698.88
2023-04-20T09:33:21.064Z,24678.4
2023-04-20T09:34:21.429Z,24023.04
2023-04-20T09:35:22.077Z,23695.36
2023-04-20T09:37:22.149Z,24084.48
2023-04-20T09:38:21.991Z,24924.16
2023-04-20T09:39:22.125Z,25620.48
2023-04-20T09:40:22.704Z,26501.12
2023-04-20T09:41:22.409Z,27033.6
2023-04-20T09:42:22.508Z,27054.08
2023-04-20T09:43:22.661Z,27054.08
2023-04-20T09:44:22.809Z,27402.24
2023-04-20T09:45:23.280Z,27115.52
2023-04-20T09:46:23.462Z,26828.8
2023-04-20T09:47:23.872Z,26808.32
2023-04-20T09:49:23.813Z,26521.6
2023-04-20T09:50:29.457Z,27074.56
2023-04-20T09:51:23.755Z,28651.52
2023-04-20T09:52:23.919Z,31027.2
2023-04-20T09:53:24.061Z,33280
2023-04-20T09:54:24.222Z,35676.16
2023-04-20T09:55:24.390Z,38113.28
2023-04-20T09:56:24.525Z,37437.44
2023-04-20T09:57:24.680Z,37171.2
2023-04-20T09:58:24.782Z,37089.28
2023-04-20T09:59:25.429Z,36577.28
2023-04-20T10:00:25.079Z,35942.4
2023-04-20T10:01:25.235Z,35082.24
2023-04-20T10:02:25.394Z,33935.36
2023-04-20T10:03:25.674Z,33239.04
2023-04-20T10:04:25.705Z,32542.72
2023-04-20T10:05:25.784Z,32194.56
2023-04-20T10:06:25.887Z,32399.36
2023-04-20T10:07:26.002Z,31744
2023-04-20T10:08:26.086Z,31395.84
2023-04-20T10:09:26.272Z,29962.24
2023-04-20T10:10:26.406Z,27729.92
2023-04-20T10:11:27.930Z,26439.68
2023-04-20T10:12:26.695Z,25006.08
2023-04-20T10:13:26.816Z,23920.64
2023-04-20T10:14:27.602Z,22732.8
2023-04-20T10:15:27.112Z,21524.48
2023-04-20T10:16:27.291Z,21094.4
2023-04-20T10:17:27.608Z,21278.72
2023-04-20T10:18:27.679Z,22364.16
2023-04-20T10:19:27.710Z,22507.52
2023-04-20T10:20:27.858Z,21483.52
2023-04-20T10:21:28.013Z,20510.72
2023-04-20T10:22:28.132Z,20408.32
2023-04-20T10:23:28.276Z,20971.52
2023-04-20T10:24:28.406Z,22016
2023-04-20T10:25:28.514Z,23142.4
2023-04-20T10:26:28.626Z,23449.6
2023-04-20T10:27:28.766Z,23347.2
2023-04-20T10:28:28.920Z,22589.44
2023-04-20T10:29:29.571Z,21381.12
2023-04-20T10:30:29.282Z,19937.28
2023-04-20T10:31:29.393Z,18872.32
2023-04-20T10:32:29.572Z,19845.12
2023-04-20T10:33:29.635Z,21319.68
2023-04-20T10:34:29.793Z,21196.8
2023-04-20T10:35:29.925Z,20469.76
2023-04-20T10:36:30.138Z,18974.72
2023-04-20T10:37:30.241Z,18165.76
2023-04-20T10:38:30.554Z,17838.08
2023-04-20T10:39:30.533Z,17909.76
2023-04-20T10:40:30.691Z,17776.64
2023-04-20T10:41:30.839Z,17192.96
2023-04-20T10:42:31.010Z,16896
2023-04-20T10:43:31.144Z,16445.44
2023-04-20T10:44:31.738Z,17111.04
2023-04-20T10:45:31.439Z,18032.64
2023-04-20T10:46:31.696Z,18565.12
2023-04-20T10:47:32.220Z,19415.04
2023-04-20T10:48:31.859Z,20408.32
2023-04-20T10:49:32.009Z,21565.44
2023-04-20T10:50:32.155Z,21831.68
2023-04-20T10:51:32.312Z,21217.28
2023-04-20T10:52:32.456Z,21524.48
2023-04-20T10:53:32.591Z,22712.32
2023-04-20T10:54:32.707Z,23449.6
2023-04-20T10:55:32.873Z,24576
2023-04-20T10:56:32.968Z,24944.64
2023-04-20T10:57:33.141Z,24842.24
2023-04-20T10:58:33.335Z,25272.32
2023-04-20T10:59:33.913Z,26296.32
2023-04-20T11:00:33.646Z,26931.2
2023-04-20T11:01:33.845Z,27607.04
2023-04-20T11:02:34.071Z,27893.76
2023-04-20T11:03:34.341Z,27320.32
2023-04-20T11:04:34.310Z,27545.6
2023-04-20T11:05:34.380Z,28160
2023-04-20T11:06:34.540Z,25845.76
2023-04-20T11:07:34.696Z,23920.64
2023-04-20T11:08:34.822Z,23285.76
2023-04-20T11:09:34.954Z,22876.16
2023-04-20T11:10:35.080Z,22650.88
2023-04-20T11:11:35.242Z,22917.12
2023-04-20T11:12:35.403Z,23859.2
2023-04-20T11:13:35.567Z,25108.48
2023-04-20T11:14:36.362Z,24637.44
2023-04-20T11:15:35.882Z,22917.12
2023-04-20T11:16:47.770Z,21012.48
2023-04-20T11:17:36.101Z,20469.76
2023-04-20T11:18:36.243Z,20469.76
2023-04-20T11:19:36.422Z,20449.28
2023-04-20T11:20:36.581Z,19906.56
2023-04-20T11:21:36.701Z,19333.12
2023-04-20T11:22:36.871Z,19374.08
2023-04-20T11:23:36.956Z,21094.4
2023-04-20T11:24:37.054Z,22609.92
2023-04-20T11:25:37.215Z,24084.48
2023-04-20T11:26:37.360Z,25333.76
2023-04-20T11:27:37.515Z,28200.96
2023-04-20T11:28:37.678Z,30003.2
2023-04-20T11:29:38.328Z,28385.28
2023-04-20T11:30:38.438Z,23859.2
2023-04-20T11:31:38.276Z,18964.48
2023-04-20T11:32:39.251Z,17438.72
2023-04-20T11:34:38.801Z,18513.92
2023-04-20T11:35:38.880Z,21831.68
2023-04-20T11:36:39.026Z,26112
2023-04-20T11:37:39.173Z,29347.84
2023-04-20T11:38:39.272Z,31621.12
2023-04-20T11:39:39.456Z,33832.96
2023-04-20T11:40:39.579Z,36536.32
2023-04-20T11:41:39.722Z,37990.4
2023-04-20T11:42:39.886Z,37908.48
2023-04-20T11:43:40.077Z,36986.88
2023-04-20T11:44:40.630Z,36372.48
2023-04-20T11:45:40.364Z,35840
2023-04-20T11:46:40.432Z,35758.08
2023-04-20T11:47:40.670Z,37437.44
2023-04-20T11:48:40.743Z,36147.2
2023-04-20T11:49:40.850Z,32030.72
2023-04-20T11:50:42.519Z,29409.28
2023-04-20T11:51:41.144Z,28651.52
2023-04-20T11:52:41.302Z,29470.72
2023-04-20T11:53:41.486Z,30453.76
2023-04-20T11:54:42.146Z,31457.28
2023-04-20T11:55:41.775Z,32092.16
2023-04-20T11:56:42.413Z,32542.72
2023-04-20T11:57:42.082Z,33054.72
2023-04-20T11:58:42.215Z,33792
2023-04-20T11:59:42.862Z,33853.44
2023-04-20T12:00:42.516Z,33464.32
2023-04-20T12:01:42.659Z,34099.2
2023-04-20T12:02:42.947Z,34304
2023-04-20T12:03:44.701Z,32849.92
2023-04-20T12:04:43.177Z,29184
2023-04-20T12:05:43.377Z,28590.08
2023-04-20T12:06:43.325Z,29163.52
2023-04-20T12:07:43.463Z,28549.12
2023-04-20T12:08:43.614Z,24412.16
2023-04-20T12:09:43.779Z,21790.72
2023-04-20T12:10:43.931Z,21463.04
2023-04-20T12:11:44.078Z,21749.76
2023-04-20T12:12:44.254Z,22220.8
2023-04-20T12:13:44.420Z,20838.4
2023-04-20T12:14:45.042Z,19886.08
2023-04-20T12:15:44.667Z,19640.32
2023-04-20T12:16:44.774Z,21176.32
2023-04-20T12:17:44.998Z,21278.72
2023-04-20T12:18:45.034Z,20541.44
2023-04-20T12:19:45.208Z,20049.92
2023-04-20T12:20:45.353Z,19118.08
2023-04-20T12:21:45.481Z,18739.2
2023-04-20T12:22:45.600Z,20398.08
2023-04-20T12:23:45.736Z,21053.44
2023-04-20T12:24:45.905Z,21237.76
2023-04-20T12:25:46.056Z,23265.28
2023-04-20T12:26:46.204Z,25415.68
2023-04-20T12:27:47.546Z,26562.56
2023-04-20T12:28:46.471Z,25026.56